createdAt,value
2023-05-05T00:00:27.409Z,101937.09
2023-05-05T00:01:31.227Z,101938.81
2023-05-05T00:02:32.924Z,101928.34
2023-05-05T00:03:38.191Z,101920.50
2023-05-05T00:04:40.138Z,101926.59
2023-05-05T00:05:42.266Z,101921.34
2023-05-05T00:06:43.839Z,101918.75
2023-05-05T00:07:45.444Z,101919.63
2023-05-05T00:08:47.466Z,101917.88
2023-05-05T00:09:49.096Z,101910.03
2023-05-05T00:10:52.534Z,101916.13
2023-05-05T00:11:54.205Z,101920.50
2023-05-05T00:12:55.847Z,101919.59
2023-05-05T00:13:57.599Z,101919.59
2023-05-05T00:14:59.318Z,101917.00
2023-05-05T00:16:01.034Z,101918.75
2023-05-05T00:17:04.138Z,101919.63
2023-05-05T00:18:06.050Z,101914.38
2023-05-05T00:19:07.757Z,101912.63
2023-05-05T00:20:09.969Z,101909.16
2023-05-05T00:21:11.603Z,101910.03
2023-05-05T00:22:13.208Z,101909.16
2023-05-05T00:23:16.564Z,101924.84
2023-05-05T00:24:18.564Z,101912.63
2023-05-05T00:25:20.338Z,101909.16
2023-05-05T00:26:22.041Z,101908.28
2023-05-05T00:27:25.434Z,101900.41
2023-05-05T00:28:27.571Z,101907.41
2023-05-05T00:29:30.052Z,101910.91
2023-05-05T00:30:31.861Z,101902.16
2023-05-05T00:31:34.042Z,101909.16
2023-05-05T00:32:35.747Z,101901.31
2023-05-05T00:33:37.401Z,101905.66
2023-05-05T00:34:39.042Z,101898.69
2023-05-05T00:35:41.247Z,101904.75
2023-05-05T00:36:43.188Z,101909.09
2023-05-05T00:37:45.055Z,101900.38
2023-05-05T00:38:47.050Z,101900.38
2023-05-05T00:39:48.821Z,101903.84
2023-05-05T00:40:50.826Z,101894.28
2023-05-05T00:41:55.687Z,101902.16
2023-05-05T00:42:59.591Z,101898.69
2023-05-05T00:44:01.850Z,101896.94
2023-05-05T00:45:04.248Z,101896.00
2023-05-05T00:46:26.544Z,101902.13
2023-05-05T00:47:28.573Z,101893.44
2023-05-05T00:48:31.317Z,101900.38
2023-05-05T00:49:36.640Z,101904.72
2023-05-05T00:50:38.930Z,101900.38
2023-05-05T00:51:40.532Z,101894.25
2023-05-05T00:52:42.936Z,101899.50
2023-05-05T00:53:45.217Z,101904.72
2023-05-05T00:54:47.142Z,101903.88
2023-05-05T00:55:49.642Z,101896.88
2023-05-05T00:56:51.402Z,101896.88
2023-05-05T00:57:53.916Z,101888.13
2023-05-05T00:58:56.366Z,101891.66
2023-05-05T00:59:59.966Z,101896.00
2023-05-05T01:01:02.002Z,101897.75
2023-05-05T01:02:04.413Z,101894.25
2023-05-05T01:03:06.563Z,101883.81
2023-05-05T01:04:09.843Z,101889.03
2023-05-05T01:05:14.479Z,101889.91
2023-05-05T01:06:57.371Z,101889.03
2023-05-05T01:08:29.393Z,101888.16
2023-05-05T01:09:48.234Z,101882.03
2023-05-05T01:11:03.274Z,101881.19
2023-05-05T01:12:32.837Z,101882.91
2023-05-05T01:14:16.966Z,101889.91
2023-05-05T01:15:26.616Z,101878.53
2023-05-05T01:16:33.472Z,101880.28
2023-05-05T01:18:05.098Z,101882.91
2023-05-05T01:19:28.235Z,101882.91
2023-05-05T01:20:45.386Z,101885.53
2023-05-05T01:22:00.950Z,101882.00
2023-05-05T01:23:06.817Z,101880.28
2023-05-05T01:24:40.970Z,101880.25
2023-05-05T01:26:09.054Z,101875.94
2023-05-05T01:27:16.560Z,101872.41
2023-05-05T01:29:06.402Z,101880.25
2023-05-05T01:30:20.454Z,101875.88
2023-05-05T01:31:36.278Z,101876.78
2023-05-05T01:32:49.862Z,101872.41
2023-05-05T01:34:04.086Z,101873.31
2023-05-05T01:35:36.284Z,101871.56
2023-05-05T01:36:45.197Z,101868.94
2023-05-05T01:37:46.724Z,101873.31
2023-05-05T01:38:55.710Z,101873.31
2023-05-05T01:40:04.793Z,101877.66
2023-05-05T01:41:17.629Z,101868.94
2023-05-05T01:42:22.651Z,101869.81
2023-05-05T01:43:29.903Z,101875.88
2023-05-05T01:44:36.994Z,101863.69
2023-05-05T01:45:42.458Z,101865.44
2023-05-05T01:46:44.302Z,101868.06
2023-05-05T01:47:47.841Z,101858.44
2023-05-05T01:48:52.578Z,101877.66
2023-05-05T01:49:58.781Z,101861.06
2023-05-05T01:51:08.103Z,101867.16
2023-05-05T01:52:11.222Z,101863.69
2023-05-05T01:53:17.660Z,101866.28
2023-05-05T01:54:20.438Z,101869.75
2023-05-05T01:55:29.091Z,101871.53
2023-05-05T01:56:32.811Z,101873.28
2023-05-05T01:57:35.972Z,101875.00
2023-05-05T01:58:39.128Z,101875.88
2023-05-05T01:59:40.990Z,101866.28
2023-05-05T02:00:44.091Z,101866.28
2023-05-05T02:01:50.646Z,101861.06
2023-05-05T02:02:58.627Z,101870.63
2023-05-05T02:04:03.699Z,101865.41
2023-05-05T02:05:07.076Z,101865.41
2023-05-05T02:06:11.135Z,101861.06
2023-05-05T02:07:14.034Z,101861.06
2023-05-05T02:08:16.925Z,101861.91
2023-05-05T02:09:20.262Z,101863.69
2023-05-05T02:10:22.016Z,101860.16
2023-05-05T02:11:23.968Z,101862.78
2023-05-05T02:12:31.029Z,101858.44
2023-05-05T02:13:33.636Z,101866.28
2023-05-05T02:14:36.957Z,101858.44
2023-05-05T02:15:40.347Z,101861.06
2023-05-05T02:16:42.905Z,101864.53
2023-05-05T02:17:46.445Z,101859.31
2023-05-05T02:18:49.901Z,101855.78
2023-05-05T02:19:53.157Z,101861.03
2023-05-05T02:20:55.471Z,101854.94
2023-05-05T02:21:57.924Z,101854.03
2023-05-05T02:23:05.659Z,101854.03
2023-05-05T02:24:10.264Z,101844.44
2023-05-05T02:25:12.013Z,101842.72
2023-05-05T02:26:16.776Z,101851.44
2023-05-05T02:27:21.806Z,101847.06
2023-05-05T02:28:33.454Z,101847.94
2023-05-05T02:29:40.639Z,101845.34
2023-05-05T02:30:43.812Z,101844.44
2023-05-05T02:31:49.928Z,101848.81
2023-05-05T02:33:06.750Z,101847.94
2023-05-05T02:34:09.571Z,101843.59
2023-05-05T02:35:15.579Z,101840.09
2023-05-05T02:36:25.907Z,101834.00
2023-05-05T02:37:34.812Z,101840.06
2023-05-05T02:38:41.850Z,101835.75
2023-05-05T02:39:59.242Z,101836.59
2023-05-05T02:41:04.932Z,101833.13
2023-05-05T02:42:09.292Z,101827.88
2023-05-05T02:43:15.558Z,101834.84
2023-05-05T02:44:20.117Z,101835.69
2023-05-05T02:45:26.818Z,101840.06
2023-05-05T02:46:32.704Z,101833.97
2023-05-05T02:47:38.652Z,101833.09
2023-05-05T02:48:43.457Z,101839.22
2023-05-05T02:49:48.472Z,101835.69
2023-05-05T02:50:50.325Z,101831.38
2023-05-05T02:52:01.571Z,101833.97
2023-05-05T02:53:09.278Z,101828.75
2023-05-05T02:54:11.274Z,101825.25
2023-05-05T02:55:13.952Z,101830.47
2023-05-05T02:56:47.681Z,101832.22
2023-05-05T02:58:24.961Z,101836.59
2023-05-05T02:59:30.939Z,101833.09
2023-05-05T03:00:51.136Z,101827.84
2023-05-05T03:01:56.943Z,101826.09
2023-05-05T03:03:06.811Z,101820.88
2023-05-05T03:04:16.283Z,101821.72
2023-05-05T03:05:28.329Z,101815.66
2023-05-05T03:06:36.899Z,101815.63
2023-05-05T03:07:43.090Z,101816.50
2023-05-05T03:09:03.301Z,101810.41
2023-05-05T03:10:18.973Z,101813.88
2023-05-05T03:11:37.886Z,101816.50
2023-05-05T03:12:49.633Z,101826.94
2023-05-05T03:14:07.098Z,101821.69
2023-05-05T03:15:10.480Z,101815.59
2023-05-05T03:16:15.236Z,101819.06
2023-05-05T03:17:18.839Z,101816.44
2023-05-05T03:18:24.702Z,101819.94
2023-05-05T03:19:36.521Z,101816.44
2023-05-05T03:20:40.695Z,101810.34
2023-05-05T03:21:45.326Z,101821.66
2023-05-05T03:22:47.892Z,101815.53
2023-05-05T03:23:50.166Z,101821.66
2023-05-05T03:24:55.129Z,101814.69
2023-05-05T03:25:59.128Z,101812.06
2023-05-05T03:27:10.475Z,101812.94
2023-05-05T03:28:15.624Z,101809.47
2023-05-05T03:29:17.962Z,101808.59
2023-05-05T03:30:20.386Z,101813.81
2023-05-05T03:31:25.448Z,101807.69
2023-05-05T03:32:31.417Z,101811.16
2023-05-05T03:33:33.228Z,101813.78
2023-05-05T03:34:37.452Z,101805.94
2023-05-05T03:35:40.420Z,101807.69
2023-05-05T03:36:45.002Z,101801.56
2023-05-05T03:37:49.743Z,101809.41
2023-05-05T03:38:53.189Z,101802.47
2023-05-05T03:39:56.594Z,101800.69
2023-05-05T03:41:02.661Z,101797.25
2023-05-05T03:42:07.697Z,101804.19
2023-05-05T03:43:10.626Z,101801.56
2023-05-05T03:44:13.693Z,101808.53
2023-05-05T03:45:16.437Z,101806.78
2023-05-05T03:46:18.655Z,101801.56
2023-05-05T03:47:20.648Z,101808.53
2023-05-05T03:48:22.674Z,101807.69
2023-05-05T03:49:25.779Z,101805.06
2023-05-05T03:50:28.118Z,101804.19
2023-05-05T03:51:31.543Z,101801.56
2023-05-05T03:52:34.687Z,101795.47
2023-05-05T03:53:36.667Z,101790.25
2023-05-05T03:54:42.518Z,101802.41
2023-05-05T03:55:44.935Z,101798.94
2023-05-05T03:56:46.783Z,101794.56
2023-05-05T03:57:48.652Z,101804.16
2023-05-05T03:58:50.228Z,101809.38
2023-05-05T03:59:52.900Z,101803.31
2023-05-05T04:00:55.055Z,101797.19
2023-05-05T04:01:57.588Z,101798.03
2023-05-05T04:02:59.849Z,101800.69
2023-05-05T04:04:02.718Z,101798.94
2023-05-05T04:05:04.869Z,101792.88
2023-05-05T04:06:06.643Z,101800.69
2023-05-05T04:07:09.173Z,101796.34
2023-05-05T04:08:10.978Z,101800.69
2023-05-05T04:09:15.432Z,101785.03
2023-05-05T04:10:18.608Z,101798.09
2023-05-05T04:11:24.098Z,101788.50
2023-05-05T04:12:29.054Z,101785.03
2023-05-05T04:13:31.825Z,101784.13
2023-05-05T04:14:33.948Z,101789.34
2023-05-05T04:15:35.793Z,101792.81
2023-05-05T04:16:37.890Z,101789.34
2023-05-05T04:17:39.870Z,101785.88
2023-05-05T04:18:41.779Z,101793.72
2023-05-05T04:19:44.187Z,101798.94
2023-05-05T04:20:46.670Z,101804.16
2023-05-05T04:21:49.533Z,101797.19
2023-05-05T04:22:52.725Z,101792.00
2023-05-05T04:23:55.391Z,101798.94
2023-05-05T04:24:57.756Z,101796.34
2023-05-05T04:25:59.819Z,101801.56
2023-05-05T04:27:02.473Z,101800.69
2023-05-05T04:28:05.175Z,101799.81
2023-05-05T04:29:09.524Z,101797.19
2023-05-05T04:30:11.808Z,101792.88
2023-05-05T04:31:15.569Z,101800.69
2023-05-05T04:32:18.591Z,101798.09
2023-05-05T04:33:20.249Z,101807.63
2023-05-05T04:34:23.846Z,101801.56
2023-05-05T04:35:26.492Z,101807.63
2023-05-05T04:36:28.558Z,101808.53
2023-05-05T04:37:30.320Z,101805.06
2023-05-05T04:38:33.072Z,101805.94
2023-05-05T04:39:35.507Z,101800.69
2023-05-05T04:40:42.013Z,101800.72
2023-05-05T04:41:45.145Z,101803.31
2023-05-05T04:42:46.777Z,101805.91
2023-05-05T04:43:48.720Z,101805.03
2023-05-05T04:44:50.620Z,101804.19
2023-05-05T04:45:56.038Z,101806.78
2023-05-05T04:47:01.604Z,101810.28
2023-05-05T04:48:05.185Z,101812.00
2023-05-05T04:49:07.029Z,101812.00
2023-05-05T04:50:10.421Z,101808.53
2023-05-05T04:51:13.500Z,101808.53
2023-05-05T04:52:15.675Z,101812.91
2023-05-05T04:53:17.959Z,101800.72
2023-05-05T04:54:19.854Z,101799.00
2023-05-05T04:55:21.513Z,101798.16
2023-05-05T04:56:23.480Z,101800.75
2023-05-05T04:57:25.285Z,101799.88
2023-05-05T04:58:28.575Z,101793.78
2023-05-05T04:59:30.502Z,101801.63
2023-05-05T05:00:32.681Z,101802.47
2023-05-05T05:01:36.224Z,101812.06
2023-05-05T05:02:39.749Z,101813.81
2023-05-05T05:03:41.683Z,101813.81
2023-05-05T05:04:43.396Z,101817.31
2023-05-05T05:05:46.251Z,101812.97
2023-05-05T05:06:48.546Z,101814.72
2023-05-05T05:07:50.676Z,101807.75
2023-05-05T05:08:52.962Z,101805.16
2023-05-05T05:09:54.808Z,101801.69
2023-05-05T05:10:56.559Z,101804.28
2023-05-05T05:12:03.022Z,101804.28
2023-05-05T05:13:04.879Z,101800.81
2023-05-05T05:14:06.883Z,101798.22
2023-05-05T05:15:09.432Z,101800.81
2023-05-05T05:16:11.597Z,101810.41
2023-05-05T05:17:13.674Z,101803.44
2023-05-05T05:18:16.047Z,101801.72
2023-05-05T05:19:17.854Z,101817.41
2023-05-05T05:20:19.990Z,101811.31
2023-05-05T05:21:22.511Z,101813.03
2023-05-05T05:22:24.631Z,101812.19
2023-05-05T05:23:26.998Z,101822.63
2023-05-05T05:24:28.798Z,101813.06
2023-05-05T05:25:30.507Z,101819.16
2023-05-05T05:26:32.710Z,101813.97
2023-05-05T05:27:34.683Z,101822.69
2023-05-05T05:28:36.398Z,101825.31
2023-05-05T05:29:38.598Z,101817.47
2023-05-05T05:30:40.552Z,101821.00
2023-05-05T05:31:44.052Z,101819.22
2023-05-05T05:32:45.701Z,101806.19
2023-05-05T05:33:47.575Z,101809.69
2023-05-05T05:34:50.028Z,101805.34
2023-05-05T05:35:51.860Z,101796.63
2023-05-05T05:36:55.386Z,101808.84
2023-05-05T05:37:57.501Z,101807.94
2023-05-05T05:38:59.928Z,101800.97
2023-05-05T05:40:05.071Z,101802.72
2023-05-05T05:41:08.444Z,101802.75
2023-05-05T05:42:11.964Z,101807.09
2023-05-05T05:43:14.643Z,101802.75
2023-05-05T05:44:16.292Z,101807.09
2023-05-05T05:45:18.218Z,101799.22
2023-05-05T05:46:19.974Z,101809.69
2023-05-05T05:47:21.892Z,101810.53
2023-05-05T05:48:28.524Z,101812.28
2023-05-05T05:49:31.489Z,101808.78
2023-05-05T05:50:33.252Z,101815.78
2023-05-05T05:51:34.887Z,101819.25
2023-05-05T05:52:36.857Z,101818.41
2023-05-05T05:53:40.465Z,101813.16
2023-05-05T05:54:43.456Z,101816.66
2023-05-05T05:55:46.578Z,101807.91
2023-05-05T05:56:49.005Z,101809.69
2023-05-05T05:57:51.186Z,101805.28
2023-05-05T05:58:52.994Z,101809.66
2023-05-05T05:59:55.105Z,101813.16
2023-05-05T06:00:59.137Z,101815.78
2023-05-05T06:02:01.638Z,101811.41
2023-05-05T06:03:03.817Z,101809.69
2023-05-05T06:04:09.092Z,101818.41
2023-05-05T06:05:13.086Z,101814.03
2023-05-05T06:06:16.499Z,101811.41
2023-05-05T06:07:18.990Z,101819.25
2023-05-05T06:08:23.053Z,101817.53
2023-05-05T06:09:27.862Z,101821.91
2023-05-05T06:10:30.307Z,101823.66
2023-05-05T06:11:37.179Z,101834.13
2023-05-05T06:12:38.901Z,101823.66
2023-05-05T06:13:40.494Z,101830.63
2023-05-05T06:14:42.266Z,101819.28
2023-05-05T06:15:43.887Z,101821.91
2023-05-05T06:16:47.846Z,101823.63
2023-05-05T06:17:54.387Z,101819.25
2023-05-05T06:18:57.217Z,101821.84
2023-05-05T06:19:59.502Z,101822.72
2023-05-05T06:21:02.051Z,101819.19
2023-05-05T06:22:05.908Z,101814.84
2023-05-05T06:23:08.032Z,101806.09
2023-05-05T06:24:14.796Z,101794.75
2023-05-05T06:25:17.259Z,101802.59
2023-05-05T06:26:20.027Z,101803.44
2023-05-05T06:27:21.658Z,101800.78
2023-05-05T06:28:23.446Z,101803.38
2023-05-05T06:29:25.721Z,101804.19
2023-05-05T06:30:27.487Z,101802.41
2023-05-05T06:31:29.169Z,101810.28
2023-05-05T06:32:30.872Z,101800.63
2023-05-05T06:33:32.593Z,101798.88
2023-05-05T06:34:34.805Z,101805.84
2023-05-05T06:35:36.569Z,101801.41
2023-05-05T06:36:38.536Z,101800.56
2023-05-05T06:37:40.303Z,101793.56
2023-05-05T06:38:41.937Z,101794.44
2023-05-05T06:39:43.586Z,101800.50
2023-05-05T06:40:48.606Z,101789.94
2023-05-05T06:41:50.191Z,101808.31
2023-05-05T06:42:51.806Z,101804.81
2023-05-05T06:43:58.594Z,101794.28
2023-05-05T06:45:00.478Z,101796.91
2023-05-05T06:46:02.051Z,101795.09
2023-05-05T06:47:03.938Z,101784.59
2023-05-05T06:48:05.812Z,101795.06
2023-05-05T06:49:07.519Z,101795.97
2023-05-05T06:50:09.658Z,101791.56
2023-05-05T06:51:11.613Z,101789.84
2023-05-05T06:52:13.330Z,101785.41
2023-05-05T06:53:14.964Z,101793.25
2023-05-05T06:54:16.828Z,101786.25
2023-05-05T06:55:18.727Z,101795.00
2023-05-05T06:56:21.032Z,101790.56
2023-05-05T06:57:23.017Z,101795.78
2023-05-05T06:58:25.180Z,101798.47
2023-05-05T06:59:26.902Z,101799.28
2023-05-05T07:00:28.603Z,101784.31
2023-05-05T07:01:30.214Z,101799.09
2023-05-05T07:02:31.906Z,101791.16
2023-05-05T07:03:34.033Z,101795.47
2023-05-05T07:04:36.531Z,101797.16
2023-05-05T07:05:38.768Z,101802.41
2023-05-05T07:06:40.412Z,101787.50
2023-05-05T07:07:55.211Z,101799.81
2023-05-05T07:08:57.867Z,101789.34
2023-05-05T07:10:00.128Z,101786.72
2023-05-05T07:11:01.859Z,101791.06
2023-05-05T07:12:04.010Z,101791.94
2023-05-05T07:13:07.451Z,101788.47
2023-05-05T07:14:09.366Z,101802.50
2023-05-05T07:15:23.247Z,101795.47
2023-05-05T07:16:28.805Z,101802.47
2023-05-05T07:17:30.581Z,101792.78
2023-05-05T07:18:33.541Z,101801.44
2023-05-05T07:19:35.390Z,101795.38
2023-05-05T07:20:36.960Z,101803.25
2023-05-05T07:21:39.724Z,101805.03
2023-05-05T07:22:41.577Z,101799.81
2023-05-05T07:23:43.178Z,101797.13
2023-05-05T07:24:45.022Z,101799.69
2023-05-05T07:25:46.681Z,101802.25
2023-05-05T07:26:48.440Z,101805.69
2023-05-05T07:27:50.268Z,101812.59
2023-05-05T07:28:58.936Z,101815.31
2023-05-05T07:30:01.345Z,101816.16
2023-05-05T07:31:03.150Z,101819.63
2023-05-05T07:32:05.299Z,101827.47
2023-05-05T07:33:07.002Z,101824.84
2023-05-05T07:34:08.748Z,101822.16
2023-05-05T07:35:10.401Z,101834.34
2023-05-05T07:36:12.055Z,101819.44
2023-05-05T07:37:13.613Z,101829.81
2023-05-05T07:38:15.211Z,101835.06
2023-05-05T07:39:18.538Z,101823.66
2023-05-05T07:40:20.543Z,101826.25
2023-05-05T07:41:22.287Z,101827.91
2023-05-05T07:42:24.034Z,101832.31
2023-05-05T07:43:25.673Z,101830.56
2023-05-05T07:44:27.669Z,101833.22
2023-05-05T07:45:29.280Z,101830.56
2023-05-05T07:46:30.893Z,101829.63
2023-05-05T07:47:32.880Z,101820.00
2023-05-05T07:48:34.740Z,101827.75
2023-05-05T07:49:36.692Z,101830.41
2023-05-05T07:50:38.772Z,101826.81
2023-05-05T07:51:40.360Z,101832.75
2023-05-05T07:52:47.903Z,101830.94
2023-05-05T07:53:51.500Z,101830.97
2023-05-05T07:54:53.181Z,101823.06
2023-05-05T07:55:54.918Z,101830.03
2023-05-05T07:56:57.472Z,101824.00
2023-05-05T07:57:59.091Z,101830.22
2023-05-05T07:59:00.991Z,101840.75
2023-05-05T08:00:03.274Z,101831.06
2023-05-05T08:01:13.653Z,101838.06
2023-05-05T08:02:15.669Z,101831.91
2023-05-05T08:03:20.217Z,101821.38
2023-05-05T08:04:21.926Z,101832.69
2023-05-05T08:05:23.762Z,101838.88
2023-05-05T08:06:25.571Z,101836.34
2023-05-05T08:07:27.363Z,101837.22
2023-05-05T08:08:28.915Z,101827.63
2023-05-05T08:09:30.479Z,101830.25
2023-05-05T08:10:32.018Z,101817.94
2023-05-05T08:11:33.636Z,101833.59
2023-05-05T08:12:35.987Z,101835.28
2023-05-05T08:13:39.202Z,101832.66
2023-05-05T08:14:42.578Z,101846.59
2023-05-05T08:15:45.148Z,101843.19
2023-05-05T08:16:46.785Z,101847.50
2023-05-05T08:17:50.108Z,101847.41
2023-05-05T08:18:52.478Z,101840.28
2023-05-05T08:19:54.313Z,101839.28
2023-05-05T08:20:56.090Z,101846.22
2023-05-05T08:22:00.062Z,101854.91
2023-05-05T08:23:03.143Z,101857.63
2023-05-05T08:24:04.801Z,101858.50
2023-05-05T08:25:07.120Z,101847.88
2023-05-05T08:26:11.608Z,101846.06
2023-05-05T08:27:14.080Z,101858.16
2023-05-05T08:28:15.844Z,101858.13
2023-05-05T08:29:17.629Z,101853.59
2023-05-05T08:30:21.734Z,101862.34
2023-05-05T08:31:23.371Z,101851.88
2023-05-05T08:32:25.539Z,101864.16
2023-05-05T08:33:28.663Z,101858.06
2023-05-05T08:34:30.464Z,101858.03
2023-05-05T08:35:32.046Z,101846.75
2023-05-05T08:36:33.721Z,101852.06
2023-05-05T08:37:35.366Z,101851.13
2023-05-05T08:38:36.949Z,101862.47
2023-05-05T08:39:38.862Z,101863.41
2023-05-05T08:40:41.320Z,101852.88
2023-05-05T08:41:43.156Z,101852.81
2023-05-05T08:42:45.696Z,101854.56
2023-05-05T08:43:48.120Z,101863.34
2023-05-05T08:44:49.926Z,101862.44
2023-05-05T08:45:51.929Z,101872.00
2023-05-05T08:46:55.152Z,101859.78
2023-05-05T08:47:58.599Z,101858.00
2023-05-05T08:49:03.719Z,101863.16
2023-05-05T08:50:05.965Z,101859.56
2023-05-05T08:51:21.660Z,101855.00
2023-05-05T08:52:24.294Z,101861.16
2023-05-05T08:53:43.720Z,101866.28
2023-05-05T08:54:51.768Z,101864.38
2023-05-05T08:56:00.701Z,101851.13
2023-05-05T08:57:06.418Z,101850.13
2023-05-05T08:58:08.950Z,101848.19
2023-05-05T08:59:11.962Z,101842.75
2023-05-05T09:00:20.604Z,101834.69
2023-05-05T09:01:22.790Z,101834.66
2023-05-05T09:02:28.844Z,101829.47
2023-05-05T09:03:32.502Z,101824.25
2023-05-05T09:04:37.825Z,101825.91
2023-05-05T09:05:43.478Z,101819.63
2023-05-05T09:06:45.215Z,101819.63
2023-05-05T09:07:47.528Z,101815.19
2023-05-05T09:08:49.736Z,101810.78
2023-05-05T09:09:51.548Z,101809.75
2023-05-05T09:10:55.194Z,101805.25
2023-05-05T09:11:59.027Z,101820.19
2023-05-05T09:13:00.777Z,101820.16
2023-05-05T09:14:02.831Z,101812.25
2023-05-05T09:15:05.022Z,101811.28
2023-05-05T09:16:07.652Z,101809.31
2023-05-05T09:17:24.371Z,101810.88
2023-05-05T09:18:26.691Z,101812.72
2023-05-05T09:19:28.693Z,101818.13
2023-05-05T09:20:35.536Z,101810.09
2023-05-05T09:21:46.447Z,101804.63
2023-05-05T09:22:48.630Z,101807.22
2023-05-05T09:24:11.294Z,101802.75
2023-05-05T09:25:15.012Z,101799.06
2023-05-05T09:26:17.020Z,101792.84
2023-05-05T09:27:25.665Z,101803.28
2023-05-05T09:28:28.054Z,101801.47
2023-05-05T09:29:30.213Z,101796.91
2023-05-05T09:30:31.820Z,101799.38
2023-05-05T09:31:34.930Z,101791.59
2023-05-05T09:32:50.856Z,101789.84
2023-05-05T09:33:52.844Z,101792.34
2023-05-05T09:34:59.710Z,101798.50
2023-05-05T09:36:01.704Z,101795.63
2023-05-05T09:37:03.700Z,101802.66
2023-05-05T09:38:12.045Z,101795.81
2023-05-05T09:39:18.257Z,101799.44
2023-05-05T09:40:21.638Z,101799.63
2023-05-05T09:41:43.848Z,101800.47
2023-05-05T09:42:45.764Z,101795.09
2023-05-05T09:43:52.072Z,101802.03
2023-05-05T09:44:54.467Z,101794.00
2023-05-05T09:46:07.554Z,101801.00
2023-05-05T09:47:18.087Z,101789.72
2023-05-05T09:48:32.268Z,101789.66
2023-05-05T09:49:36.254Z,101789.63
2023-05-05T09:50:44.525Z,101802.91
2023-05-05T09:51:47.248Z,101799.50
2023-05-05T09:53:06.881Z,101794.34
2023-05-05T09:54:08.628Z,101802.28
2023-05-05T09:55:19.764Z,101803.25
2023-05-05T09:56:21.615Z,101803.38
2023-05-05T09:57:28.532Z,101785.78
2023-05-05T09:58:31.062Z,101780.56
2023-05-05T09:59:33.083Z,101782.28
2023-05-05T10:00:39.127Z,101784.81
2023-05-05T10:01:43.526Z,101778.50
2023-05-05T10:02:45.521Z,101777.31
2023-05-05T10:03:52.316Z,101769.25
2023-05-05T10:05:05.034Z,101783.03
2023-05-05T10:06:07.899Z,101804.03
2023-05-05T10:07:23.078Z,101767.94
2023-05-05T10:08:31.741Z,101765.44
2023-05-05T10:09:33.587Z,101764.44
2023-05-05T10:10:35.397Z,101771.38
2023-05-05T10:11:37.187Z,101778.41
2023-05-05T10:12:39.889Z,101776.66
2023-05-05T10:13:42.065Z,101772.50
2023-05-05T10:14:44.032Z,101769.19
2023-05-05T10:15:47.482Z,101763.97
2023-05-05T10:16:55.253Z,101765.91
2023-05-05T10:18:07.371Z,101764.16
2023-05-05T10:19:15.079Z,101768.53
2023-05-05T10:20:18.716Z,101764.28
2023-05-05T10:21:21.750Z,101764.28
2023-05-05T10:22:24.982Z,101760.69
2023-05-05T10:23:47.814Z,101758.97
2023-05-05T10:24:57.836Z,101768.75
2023-05-05T10:26:05.438Z,101766.09
2023-05-05T10:27:17.962Z,101754.63
2023-05-05T10:28:41.966Z,101756.16
2023-05-05T10:30:02.704Z,101749.13
2023-05-05T10:31:23.934Z,101753.34
2023-05-05T10:33:09.081Z,101764.72
2023-05-05T10:34:19.005Z,101754.00
2023-05-05T10:35:22.462Z,101749.63
2023-05-05T10:36:25.620Z,101747.00
2023-05-05T10:37:28.735Z,101739.91
2023-05-05T10:38:31.536Z,101746.94
2023-05-05T10:39:37.474Z,101742.47
2023-05-05T10:40:46.544Z,101740.50
2023-05-05T10:41:48.525Z,101737.72
2023-05-05T10:42:50.920Z,101744.63
2023-05-05T10:43:57.276Z,101748.03
2023-05-05T10:44:58.993Z,101746.34
2023-05-05T10:46:01.412Z,101749.31
2023-05-05T10:47:03.960Z,101745.91
2023-05-05T10:48:12.855Z,101755.94
2023-05-05T10:49:28.800Z,101760.28
2023-05-05T10:50:35.959Z,101755.06
2023-05-05T10:51:49.733Z,101750.75
2023-05-05T10:53:01.023Z,101760.38
2023-05-05T10:54:24.660Z,101764.94
2023-05-05T10:55:46.408Z,101751.09
2023-05-05T10:56:48.789Z,101752.84
2023-05-05T10:57:53.638Z,101752.13
2023-05-05T10:59:00.335Z,101743.34
2023-05-05T11:00:04.321Z,101743.22
2023-05-05T11:01:06.941Z,101739.47
2023-05-05T11:02:28.493Z,101751.63
2023-05-05T11:03:30.606Z,101736.50
2023-05-05T11:04:32.723Z,101745.16
2023-05-05T11:05:34.554Z,101738.75
2023-05-05T11:06:36.263Z,101738.53
2023-05-05T11:07:38.670Z,101752.53
2023-05-05T11:08:42.584Z,101740.97
2023-05-05T11:10:03.854Z,101744.41
2023-05-05T11:11:05.932Z,101744.19
2023-05-05T11:12:08.530Z,101749.28
2023-05-05T11:13:10.374Z,101743.03
2023-05-05T11:14:24.173Z,101733.31
2023-05-05T11:15:28.969Z,101743.69
2023-05-05T11:16:50.186Z,101743.41
2023-05-05T11:17:52.789Z,101753.81
2023-05-05T11:18:54.623Z,101754.56
2023-05-05T11:19:56.526Z,101750.22
2023-05-05T11:20:58.008Z,101754.53
2023-05-05T11:22:01.767Z,101760.59
2023-05-05T11:23:03.566Z,101765.78
2023-05-05T11:24:36.401Z,101758.59
2023-05-05T11:25:41.037Z,101759.44
2023-05-05T11:26:51.388Z,101759.31
2023-05-05T11:28:10.502Z,101750.28
2023-05-05T11:29:12.327Z,101752.69
2023-05-05T11:30:15.107Z,101745.50
2023-05-05T11:31:17.913Z,101746.19
2023-05-05T11:32:19.986Z,101747.72
2023-05-05T11:33:30.837Z,101748.25
2023-05-05T11:34:32.663Z,101745.41
2023-05-05T11:35:56.350Z,101730.47
2023-05-05T11:37:03.412Z,101740.84
2023-05-05T11:38:08.501Z,101731.72
2023-05-05T11:39:28.676Z,101729.97
2023-05-05T11:40:35.310Z,101736.06
2023-05-05T11:41:58.623Z,101725.16
2023-05-05T11:43:07.425Z,101714.56
2023-05-05T11:44:08.885Z,101730.81
2023-05-05T11:45:24.558Z,101725.69
2023-05-05T11:46:26.258Z,101731.50
2023-05-05T11:47:29.627Z,101714.84
2023-05-05T11:48:32.073Z,101714.06
2023-05-05T11:49:36.185Z,101724.28
2023-05-05T11:50:37.890Z,101714.53
2023-05-05T11:51:39.994Z,101711.78
2023-05-05T11:52:41.643Z,101716.91
2023-05-05T11:53:44.772Z,101718.59
2023-05-05T11:54:48.931Z,101711.47
2023-05-05T11:56:06.422Z,101722.78
2023-05-05T11:57:08.964Z,101704.38
2023-05-05T11:58:20.604Z,101712.06
2023-05-05T11:59:22.754Z,101709.31
2023-05-05T12:00:33.906Z,101709.25
2023-05-05T12:01:39.829Z,101697.75
2023-05-05T12:02:43.908Z,101692.22
2023-05-05T12:03:46.524Z,101697.63
2023-05-05T12:04:49.474Z,101697.66
2023-05-05T12:05:55.073Z,101695.72
2023-05-05T12:06:57.682Z,101703.72
2023-05-05T12:07:59.901Z,101698.44
2023-05-05T12:09:01.669Z,101700.31
2023-05-05T12:10:03.599Z,101702.88
2023-05-05T12:11:07.887Z,101694.94
2023-05-05T12:12:09.718Z,101693.06
2023-05-05T12:13:21.149Z,101685.84
2023-05-05T12:14:24.713Z,101708.81
2023-05-05T12:15:30.786Z,101683.44
2023-05-05T12:16:32.913Z,101676.47
2023-05-05T12:17:44.994Z,101703.88
2023-05-05T12:18:46.749Z,101694.44
2023-05-05T12:19:55.344Z,101683.13
2023-05-05T12:20:56.921Z,101697.38
2023-05-05T12:22:02.586Z,101681.44
2023-05-05T12:23:04.910Z,101688.56